createdAt,value
2022-09-23T00:01:02.640Z,2.47
2022-09-23T00:03:30.568Z,1.43
2022-09-23T00:05:58.418Z,2.13
2022-09-23T00:08:25.097Z,1.40
2022-09-23T00:10:53.141Z,1.70
2022-09-23T00:13:19.725Z,1.47
2022-09-23T00:15:46.203Z,2.73
2022-09-23T00:18:12.800Z,2.13
2022-09-23T00:20:39.285Z,1.80
2022-09-23T00:23:05.922Z,1.90
2022-09-23T00:25:32.401Z,1.90
2022-09-23T00:28:00.421Z,1.63
2022-09-23T00:30:27.098Z,1.80
2022-09-23T00:32:53.660Z,2.07
2022-09-23T00:35:20.211Z,1.60
2022-09-23T00:37:46.728Z,2.53
2022-09-23T00:40:13.601Z,1.67
2022-09-23T00:42:46.715Z,1.97
2022-09-23T00:45:15.427Z,1.60
2022-09-23T00:47:45.765Z,2.00
2022-09-23T00:50:17.144Z,1.53
2022-09-23T00:52:43.966Z,1.53
2022-09-23T00:55:13.288Z,1.53
2022-09-23T00:57:42.268Z,1.80
2022-09-23T01:00:10.461Z,1.93
2022-09-23T01:02:38.474Z,1.77
2022-09-23T01:05:06.994Z,2.00
2022-09-23T01:07:33.714Z,1.63
2022-09-23T01:10:00.868Z,1.73
2022-09-23T01:12:42.793Z,2.33
2022-09-23T01:15:15.288Z,2.70
2022-09-23T01:17:51.863Z,2.67
2022-09-23T01:20:40.909Z,3.40
2022-09-23T01:23:26.824Z,3.17
2022-09-23T01:26:07.551Z,3.67
2022-09-23T01:28:57.117Z,6.30
2022-09-23T01:31:34.670Z,3.93
2022-09-23T01:34:09.359Z,2.37
2022-09-23T01:36:41.128Z,3.07
2022-09-23T01:39:12.912Z,1.43
2022-09-23T01:41:49.542Z,2.17
2022-09-23T01:44:21.565Z,1.60
2022-09-23T01:46:53.400Z,2.77
2022-09-23T01:49:25.244Z,1.70
2022-09-23T01:51:57.196Z,1.80
2022-09-23T01:54:29.538Z,1.60
2022-09-23T01:57:01.134Z,1.90
2022-09-23T01:59:33.610Z,1.90
2022-09-23T02:02:05.526Z,1.60
2022-09-23T02:04:35.666Z,1.80
2022-09-23T02:07:05.748Z,1.50
2022-09-23T02:09:37.418Z,1.70
2022-09-23T02:12:08.297Z,1.67
2022-09-23T02:14:42.175Z,2.37
2022-09-23T02:17:15.256Z,3.13
2022-09-23T02:19:46.260Z,1.37
2022-09-23T02:22:18.046Z,1.60
2022-09-23T02:24:44.609Z,1.37
2022-09-23T02:27:21.620Z,1.17
2022-09-23T02:29:55.279Z,1.30
2022-09-23T02:32:25.841Z,1.57
2022-09-23T02:35:00.410Z,1.60
2022-09-23T02:37:34.350Z,1.73
2022-09-23T02:40:11.811Z,3.90
2022-09-23T02:42:47.275Z,2.40
2022-09-23T02:45:13.920Z,1.73
2022-09-23T02:47:44.711Z,2.10
2022-09-23T02:50:11.255Z,1.67
2022-09-23T02:52:37.875Z,1.43
2022-09-23T02:55:05.657Z,1.57
2022-09-23T02:57:32.567Z,1.43
2022-09-23T02:59:59.061Z,2.27
2022-09-23T03:02:39.612Z,1.83
2022-09-23T03:05:13.751Z,1.60
2022-09-23T03:07:49.797Z,1.50
2022-09-23T03:10:21.825Z,1.53
2022-09-23T03:12:59.472Z,1.30
2022-09-23T03:15:34.506Z,1.43
2022-09-23T03:18:11.034Z,1.63
2022-09-23T03:20:43.819Z,2.10
2022-09-23T03:23:13.658Z,1.33
2022-09-23T03:25:42.487Z,1.30
2022-09-23T03:28:10.803Z,1.90
2022-09-23T03:30:38.241Z,1.60
2022-09-23T03:33:08.040Z,1.93
2022-09-23T03:35:41.389Z,3.73
2022-09-23T03:38:13.552Z,1.50
2022-09-23T03:40:43.474Z,1.50
2022-09-23T03:43:11.197Z,1.97
2022-09-23T03:45:37.720Z,1.63
2022-09-23T03:48:04.637Z,3.17
2022-09-23T03:50:31.132Z,1.97
2022-09-23T03:52:58.957Z,1.67
2022-09-23T03:55:25.428Z,2.27
2022-09-23T03:57:52.150Z,2.57
2022-09-23T04:00:18.930Z,2.23
2022-09-23T04:02:45.412Z,3.53
2022-09-23T04:05:13.379Z,2.17
2022-09-23T04:07:39.876Z,2.60
2022-09-23T04:10:09.226Z,1.50
2022-09-23T04:12:35.807Z,2.43
2022-09-23T04:15:02.375Z,1.77
2022-09-23T04:17:28.977Z,2.10
2022-09-23T04:19:55.556Z,2.47
2022-09-23T04:22:22.115Z,2.53
2022-09-23T04:24:48.638Z,4.17
2022-09-23T04:27:16.484Z,2.43
2022-09-23T04:29:42.983Z,2.60
2022-09-23T04:32:09.474Z,1.73
2022-09-23T04:34:35.968Z,2.13
2022-09-23T04:37:02.447Z,2.00
2022-09-23T04:39:28.927Z,2.53
2022-09-23T04:41:55.403Z,1.50
2022-09-23T04:44:23.271Z,2.47
2022-09-23T04:46:49.888Z,2.30
2022-09-23T04:49:16.614Z,6.57
2022-09-23T04:51:43.121Z,3.60
2022-09-23T04:54:10.041Z,1.90
2022-09-23T04:56:36.645Z,1.83
2022-09-23T04:59:03.244Z,2.60
2022-09-23T05:01:32.851Z,2.57
2022-09-23T05:04:01.423Z,2.70
2022-09-23T05:06:28.611Z,2.23
2022-09-23T05:08:56.557Z,2.87
2022-09-23T05:11:24.060Z,2.10
2022-09-23T05:13:51.965Z,1.97
2022-09-23T05:16:19.370Z,2.10
2022-09-23T05:18:49.105Z,3.23
2022-09-23T05:21:17.437Z,1.60
2022-09-23T05:23:47.519Z,2.70
2022-09-23T05:26:14.030Z,2.10
2022-09-23T05:28:40.646Z,2.30
2022-09-23T05:31:09.921Z,3.37
2022-09-23T05:33:37.015Z,2.57
2022-09-23T05:36:05.565Z,2.50
2022-09-23T05:38:32.639Z,2.13
2022-09-23T05:41:00.858Z,2.20
2022-09-23T05:43:28.065Z,2.60
2022-09-23T05:46:05.885Z,2.30
2022-09-23T05:48:35.900Z,2.27
2022-09-23T05:51:03.356Z,3.90
2022-09-23T05:53:31.320Z,2.57
2022-09-23T05:55:57.909Z,2.27
2022-09-23T05:58:25.057Z,2.40
2022-09-23T06:00:52.209Z,2.20
2022-09-23T06:03:21.170Z,3.47
2022-09-23T06:05:47.739Z,4.40
2022-09-23T06:08:14.576Z,3.97
2022-09-23T06:10:44.126Z,4.27
2022-09-23T06:13:11.172Z,3.60
2022-09-23T06:15:38.200Z,3.20
2022-09-23T06:18:05.539Z,3.60
2022-09-23T06:20:33.376Z,3.30
2022-09-23T06:23:05.902Z,2.50
2022-09-23T06:25:35.468Z,4.97
2022-09-23T06:28:03.489Z,3.30
2022-09-23T06:30:30.003Z,4.63
2022-09-23T06:32:57.992Z,3.67
2022-09-23T06:35:27.723Z,2.30
2022-09-23T06:37:54.736Z,2.80
2022-09-23T06:40:21.947Z,4.67
2022-09-23T06:42:52.161Z,3.63
2022-09-23T06:45:20.286Z,6.57
2022-09-23T06:47:46.816Z,2.97
2022-09-23T06:50:13.317Z,3.40
2022-09-23T06:52:39.856Z,3.70
2022-09-23T06:55:07.266Z,3.70
2022-09-23T06:57:33.783Z,3.30
2022-09-23T07:00:00.581Z,5.53
2022-09-23T07:02:28.545Z,4.37
2022-09-23T07:04:55.135Z,3.73
2022-09-23T07:07:21.631Z,6.03
2022-09-23T07:09:48.147Z,5.20
2022-09-23T07:12:14.655Z,2.80
2022-09-23T07:14:41.176Z,3.47
2022-09-23T07:17:07.658Z,2.30
2022-09-23T07:19:35.503Z,2.83
2022-09-23T07:22:02.043Z,2.30
2022-09-23T07:24:28.580Z,5.27
2022-09-23T07:26:55.052Z,4.53
2022-09-23T07:29:21.664Z,2.77
2022-09-23T07:31:48.175Z,3.20
2022-09-23T07:34:14.686Z,4.90
2022-09-23T07:36:42.584Z,3.57
2022-09-23T07:39:11.051Z,4.10
2022-09-23T07:41:37.596Z,3.10
2022-09-23T07:44:04.317Z,7.40
2022-09-23T07:46:33.146Z,3.37
2022-09-23T07:48:59.920Z,2.33
2022-09-23T07:51:30.838Z,3.93
2022-09-23T07:54:04.022Z,3.30
2022-09-23T07:56:30.733Z,2.63
2022-09-23T07:58:57.344Z,4.10
2022-09-23T08:01:23.834Z,3.87
2022-09-23T08:03:50.376Z,4.77
2022-09-23T08:06:16.850Z,2.37
2022-09-23T08:08:43.403Z,2.30
2022-09-23T08:11:13.451Z,2.70
2022-09-23T08:13:40.607Z,2.37
2022-09-23T08:16:07.377Z,3.10
2022-09-23T08:18:34.280Z,2.10
2022-09-23T08:21:00.764Z,2.43
2022-09-23T08:23:27.274Z,2.87
2022-09-23T08:25:59.330Z,2.70
2022-09-23T08:28:28.030Z,2.70
2022-09-23T08:30:54.721Z,2.77
2022-09-23T08:33:23.574Z,2.60
2022-09-23T08:35:51.009Z,2.90
2022-09-23T08:38:18.799Z,3.93
2022-09-23T08:40:48.154Z,2.50
2022-09-23T08:43:20.757Z,2.57
2022-09-23T08:45:49.691Z,2.50
2022-09-23T08:48:28.391Z,3.30
2022-09-23T08:50:59.149Z,2.17
2022-09-23T08:53:28.400Z,2.77
2022-09-23T08:55:57.969Z,2.27
2022-09-23T08:58:37.359Z,2.20
2022-09-23T09:01:13.444Z,2.07
2022-09-23T09:03:45.223Z,4.10
2022-09-23T09:06:16.486Z,2.03
2022-09-23T09:08:46.874Z,2.67
2022-09-23T09:11:15.931Z,4.10
2022-09-23T09:13:53.248Z,3.50
2022-09-23T09:16:58.421Z,2.57
2022-09-23T09:19:42.876Z,3.17
2022-09-23T09:22:18.899Z,3.07
2022-09-23T09:24:48.517Z,2.43
2022-09-23T09:27:15.125Z,2.80
2022-09-23T09:29:44.291Z,4.07
2022-09-23T09:32:23.110Z,3.40
2022-09-23T09:34:53.637Z,5.00
2022-09-23T09:37:25.446Z,2.90
2022-09-23T09:39:51.940Z,2.50
2022-09-23T09:42:24.419Z,2.00
2022-09-23T09:44:55.317Z,2.10
2022-09-23T09:47:34.483Z,1.97
2022-09-23T09:50:06.642Z,2.60
2022-09-23T09:52:33.389Z,2.93
2022-09-23T09:55:23.057Z,1.90
2022-09-23T09:57:54.732Z,1.60
2022-09-23T10:00:40.837Z,2.10
2022-09-23T10:03:27.800Z,1.60
2022-09-23T10:05:54.342Z,1.33
2022-09-23T10:08:30.575Z,1.60
2022-09-23T10:11:02.688Z,2.37
2022-09-23T10:13:30.312Z,2.17
2022-09-23T10:15:58.005Z,2.17
2022-09-23T10:18:29.406Z,2.20
2022-09-23T10:21:00.766Z,2.80
2022-09-23T10:23:28.896Z,1.50
2022-09-23T10:25:56.975Z,2.23
2022-09-23T10:28:40.286Z,2.13
2022-09-23T10:31:09.278Z,1.40
2022-09-23T10:33:42.459Z,1.77
2022-09-23T10:36:10.188Z,1.87
2022-09-23T10:38:37.058Z,1.40
2022-09-23T10:41:05.084Z,1.40
2022-09-23T10:43:41.365Z,1.63
2022-09-23T10:46:13.911Z,2.30
2022-09-23T10:48:54.582Z,1.50
2022-09-23T10:51:28.858Z,1.80
2022-09-23T10:54:02.818Z,2.73
2022-09-23T10:56:36.775Z,1.30
2022-09-23T10:59:43.435Z,4.33
2022-09-23T11:02:28.634Z,2.00
2022-09-23T11:05:19.504Z,1.33
2022-09-23T11:07:52.224Z,1.50
2022-09-23T11:10:45.843Z,1.50
2022-09-23T11:13:24.289Z,1.47
2022-09-23T11:15:58.533Z,1.73
2022-09-23T11:18:39.502Z,1.30
2022-09-23T11:21:38.917Z,2.00
2022-09-23T11:24:39.019Z,1.43
2022-09-23T11:27:16.395Z,2.10
2022-09-23T11:30:05.465Z,1.40
2022-09-23T11:33:01.026Z,1.40
2022-09-23T11:35:33.257Z,1.70
2022-09-23T11:38:07.903Z,1.30
2022-09-23T11:40:38.909Z,1.83
2022-09-23T11:43:18.340Z,1.60
2022-09-23T11:45:51.226Z,1.67
2022-09-23T11:48:23.088Z,1.50
2022-09-23T11:50:56.020Z,1.40
2022-09-23T11:53:30.445Z,1.63
2022-09-23T11:56:03.391Z,1.30
2022-09-23T11:58:35.054Z,1.93
2022-09-23T12:01:05.035Z,1.57
2022-09-23T12:03:44.410Z,1.53
2022-09-23T12:06:15.842Z,2.67
2022-09-23T12:08:43.709Z,1.37
2022-09-23T12:11:24.289Z,2.33
2022-09-23T12:13:57.771Z,1.60
2022-09-23T12:16:45.689Z,1.60
2022-09-23T12:19:29.071Z,2.57
2022-09-23T12:22:06.806Z,1.73
2022-09-23T12:24:54.361Z,1.70
2022-09-23T12:27:28.365Z,1.50
2022-09-23T12:29:58.366Z,1.50
2022-09-23T12:32:25.612Z,1.90
2022-09-23T12:34:53.134Z,1.40
2022-09-23T12:37:26.243Z,2.13
2022-09-23T12:39:58.492Z,1.33
2022-09-23T12:42:30.187Z,1.23
2022-09-23T12:45:27.236Z,1.00
2022-09-23T12:47:53.792Z,1.90
2022-09-23T12:50:52.810Z,1.37
2022-09-23T12:53:57.139Z,1.33
2022-09-23T12:56:27.875Z,1.40
2022-09-23T12:59:11.780Z,1.53
2022-09-23T13:01:39.032Z,1.50
2022-09-23T13:04:05.848Z,1.40
2022-09-23T13:06:38.836Z,1.70
2022-09-23T13:09:08.810Z,1.63
2022-09-23T13:11:37.640Z,1.30
2022-09-23T13:14:04.934Z,1.10
2022-09-23T13:16:34.025Z,1.47
2022-09-23T13:19:01.553Z,1.20
2022-09-23T13:22:01.045Z,1.57
2022-09-23T13:24:46.748Z,1.10
2022-09-23T13:27:19.728Z,1.20
2022-09-23T13:29:50.871Z,1.10
2022-09-23T13:32:20.160Z,1.73
2022-09-23T13:34:55.824Z,1.20
2022-09-23T13:37:23.969Z,1.70
2022-09-23T13:39:50.943Z,1.00
2022-09-23T13:42:25.607Z,1.10
2022-09-23T13:44:54.557Z,1.10
2022-09-23T13:47:21.347Z,1.03
2022-09-23T13:49:48.460Z,0.97
2022-09-23T13:52:24.568Z,1.03
2022-09-23T13:54:51.115Z,1.03
2022-09-23T13:57:30.217Z,0.90
2022-09-23T14:00:00.257Z,1.57
2022-09-23T14:02:26.854Z,2.90
2022-09-23T14:04:56.511Z,1.20
2022-09-23T14:07:23.141Z,1.60
2022-09-23T14:09:52.354Z,3.63
2022-09-23T14:12:18.953Z,1.30
2022-09-23T14:14:47.056Z,1.93
2022-09-23T14:17:16.835Z,1.43
2022-09-23T14:19:43.577Z,2.20
2022-09-23T14:22:22.100Z,1.00
2022-09-23T14:24:49.046Z,2.80
2022-09-23T14:27:27.485Z,1.03
2022-09-23T14:29:56.204Z,1.10
2022-09-23T14:32:26.183Z,1.13
2022-09-23T14:35:04.587Z,1.30
2022-09-23T14:37:33.748Z,0.90
2022-09-23T14:40:00.912Z,1.63
2022-09-23T14:42:28.801Z,1.07
2022-09-23T14:44:57.220Z,1.17
2022-09-23T14:47:23.921Z,1.30
2022-09-23T14:49:51.272Z,1.27
2022-09-23T14:52:17.770Z,1.20
2022-09-23T14:54:45.499Z,1.67
2022-09-23T14:57:25.916Z,1.10
2022-09-23T14:59:54.242Z,1.97
2022-09-23T15:02:42.280Z,1.63
2022-09-23T15:05:20.104Z,1.20
2022-09-23T15:07:48.791Z,1.20
2022-09-23T15:10:19.395Z,1.63
2022-09-23T15:12:46.864Z,2.50
2022-09-23T15:15:14.672Z,0.90
2022-09-23T15:17:43.376Z,1.83
2022-09-23T15:20:20.012Z,1.10
2022-09-23T15:22:48.293Z,1.20
2022-09-23T15:25:18.857Z,1.10
2022-09-23T15:27:56.979Z,1.27
2022-09-23T15:30:23.683Z,1.30
2022-09-23T15:32:51.525Z,1.20
2022-09-23T15:35:20.566Z,1.20
2022-09-23T15:37:49.344Z,1.30
2022-09-23T15:40:21.435Z,1.40
2022-09-23T15:42:48.311Z,1.33
2022-09-23T15:45:14.989Z,1.10
2022-09-23T15:47:41.526Z,1.00
2022-09-23T15:50:12.247Z,1.47
2022-09-23T15:52:38.900Z,1.73
2022-09-23T15:55:14.659Z,1.10
2022-09-23T15:57:41.245Z,1.20
2022-09-23T16:00:12.181Z,2.50
2022-09-23T16:02:39.436Z,1.30
2022-09-23T16:05:06.512Z,1.50
2022-09-23T16:07:34.345Z,1.03
2022-09-23T16:10:00.826Z,2.23
2022-09-23T16:12:27.351Z,1.00
2022-09-23T16:14:54.218Z,1.00
2022-09-23T16:17:20.702Z,1.17
2022-09-23T16:19:47.215Z,1.10
2022-09-23T16:22:15.158Z,1.23
2022-09-23T16:24:43.155Z,1.10
2022-09-23T16:27:12.292Z,1.10
2022-09-23T16:29:38.796Z,0.93
2022-09-23T16:32:05.393Z,1.33
2022-09-23T16:34:31.938Z,1.23
2022-09-23T16:36:58.799Z,1.57
2022-09-23T16:39:25.379Z,0.80
2022-09-23T16:41:53.204Z,1.43
2022-09-23T16:44:19.678Z,1.17
2022-09-23T16:46:46.162Z,1.30
2022-09-23T16:49:12.667Z,1.57
2022-09-23T16:51:39.930Z,1.37
2022-09-23T16:54:08.798Z,1.10
2022-09-23T16:56:35.821Z,1.80
2022-09-23T16:59:03.805Z,2.87
2022-09-23T17:01:30.632Z,2.47
2022-09-23T17:03:57.305Z,3.27
2022-09-23T17:06:23.818Z,2.83
2022-09-23T17:08:50.432Z,2.00
2022-09-23T17:11:17.225Z,2.60
2022-09-23T17:13:43.965Z,2.63
2022-09-23T17:16:22.925Z,2.00
2022-09-23T17:18:49.496Z,2.10
2022-09-23T17:21:16.048Z,1.73
2022-09-23T17:23:42.535Z,1.40
2022-09-23T17:26:09.059Z,1.47
2022-09-23T17:28:35.842Z,2.07
2022-09-23T17:31:04.185Z,1.70
2022-09-23T17:33:33.907Z,2.37
2022-09-23T17:36:05.005Z,3.53
2022-09-23T17:38:31.488Z,4.60
2022-09-23T17:40:58.123Z,4.13
2022-09-23T17:43:24.615Z,4.53
2022-09-23T17:45:52.110Z,4.40
2022-09-23T17:48:18.717Z,4.00
2022-09-23T17:50:55.170Z,3.30
2022-09-23T17:53:21.842Z,3.03
2022-09-23T17:55:55.160Z,2.60
2022-09-23T17:58:24.492Z,2.20
2022-09-23T18:00:51.028Z,3.83
2022-09-23T18:03:17.571Z,5.50
2022-09-23T18:05:44.085Z,8.67
2022-09-23T18:08:11.942Z,10.97
2022-09-23T18:10:38.465Z,13.07
2022-09-23T18:13:05.027Z,7.57
2022-09-23T18:15:31.541Z,3.97
2022-09-23T18:17:58.021Z,3.63
2022-09-23T18:20:24.545Z,3.37
2022-09-23T18:22:51.052Z,3.00
2022-09-23T18:25:38.298Z,2.97
2022-09-23T18:28:05.379Z,3.00
2022-09-23T18:30:31.868Z,3.23
2022-09-23T18:32:59.401Z,6.17
2022-09-23T18:35:25.882Z,7.53
2022-09-23T18:37:52.354Z,7.73
2022-09-23T18:40:20.267Z,7.10
2022-09-23T18:42:46.878Z,5.10
2022-09-23T18:45:13.465Z,3.27
2022-09-23T18:47:39.947Z,3.77
2022-09-23T18:50:09.643Z,3.20
2022-09-23T18:52:36.151Z,2.90
2022-09-23T18:55:02.818Z,4.13
2022-09-23T18:57:30.660Z,3.20
2022-09-23T18:59:57.280Z,2.77
2022-09-23T19:02:23.888Z,3.50
2022-09-23T19:04:50.379Z,3.53
2022-09-23T19:07:16.859Z,3.30
2022-09-23T19:09:43.376Z,3.70
2022-09-23T19:12:09.903Z,2.93
2022-09-23T19:14:37.729Z,2.47
2022-09-23T19:17:04.243Z,2.20
2022-09-23T19:19:30.723Z,2.47
2022-09-23T19:21:57.235Z,4.47
2022-09-23T19:24:23.700Z,3.67
2022-09-23T19:26:50.182Z,2.60
2022-09-23T19:29:18.533Z,2.27
2022-09-23T19:31:46.479Z,2.80
2022-09-23T19:34:15.122Z,2.50
2022-09-23T19:36:43.595Z,2.67
2022-09-23T19:39:15.434Z,2.50
2022-09-23T19:41:41.907Z,2.10
2022-09-23T19:44:09.123Z,3.00
2022-09-23T19:46:37.400Z,3.40
2022-09-23T19:49:06.711Z,2.70
2022-09-23T19:51:33.983Z,2.43
2022-09-23T19:54:00.883Z,3.00
2022-09-23T19:56:27.775Z,1.93
2022-09-23T19:58:54.348Z,2.03
2022-09-23T20:01:21.741Z,2.07
2022-09-23T20:03:48.791Z,3.40
2022-09-23T20:06:17.753Z,4.47
2022-09-23T20:08:44.841Z,2.80
2022-09-23T20:11:13.396Z,3.80
2022-09-23T20:13:40.870Z,3.30
2022-09-23T20:16:08.057Z,2.70
2022-09-23T20:18:35.006Z,2.93
2022-09-23T20:21:01.518Z,2.83
2022-09-23T20:23:32.745Z,5.47
2022-09-23T20:26:00.613Z,4.57
2022-09-23T20:28:27.097Z,5.73
2022-09-23T20:30:58.007Z,6.43
2022-09-23T20:33:24.523Z,5.70
2022-09-23T20:35:51.066Z,6.70
2022-09-23T20:38:17.559Z,9.17
2022-09-23T20:40:54.492Z,6.97
2022-09-23T20:43:21.083Z,6.87
2022-09-23T20:45:49.591Z,24.50
2022-09-23T20:48:16.092Z,16.07
2022-09-23T20:50:42.578Z,12.57
2022-09-23T20:53:09.152Z,10.40
2022-09-23T20:55:35.661Z,9.40
2022-09-23T20:58:03.526Z,7.10
2022-09-23T21:00:30.141Z,5.53
2022-09-23T21:02:56.622Z,5.20
2022-09-23T21:05:23.241Z,4.77
2022-09-23T21:07:49.748Z,4.73
2022-09-23T21:10:16.221Z,4.13
2022-09-23T21:12:42.708Z,3.27
2022-09-23T21:15:10.904Z,3.27
2022-09-23T21:17:37.405Z,3.43
2022-09-23T21:20:04.552Z,5.73
2022-09-23T21:22:31.052Z,4.73
2022-09-23T21:25:26.995Z,3.40
2022-09-23T21:27:44.005Z,3.70
2022-09-23T21:30:13.086Z,3.57
2022-09-23T21:32:39.577Z,2.50
2022-09-23T21:35:06.517Z,2.37
2022-09-23T21:37:33.034Z,4.00
2022-09-23T21:39:59.494Z,5.37
2022-09-23T21:42:25.987Z,4.00
2022-09-23T21:44:52.475Z,4.00
2022-09-23T21:47:20.325Z,4.50
2022-09-23T21:49:50.662Z,5.60
2022-09-23T21:52:17.485Z,5.73
2022-09-23T21:54:43.999Z,5.17
2022-09-23T21:57:10.468Z,5.17
2022-09-23T21:59:36.943Z,6.67
2022-09-23T22:02:03.422Z,6.00
2022-09-23T22:04:31.384Z,4.30
2022-09-23T22:06:58.093Z,3.80
2022-09-23T22:09:24.602Z,3.50
2022-09-23T22:11:51.146Z,5.20
2022-09-23T22:14:21.458Z,4.53
2022-09-23T22:16:47.950Z,3.40
2022-09-23T22:19:14.718Z,3.23
2022-09-23T22:21:44.061Z,3.63
2022-09-23T22:24:11.797Z,4.90
2022-09-23T22:26:39.755Z,2.90
2022-09-23T22:29:09.222Z,5.20
2022-09-23T22:31:35.769Z,5.47
2022-09-23T22:34:02.315Z,4.57
2022-09-23T22:36:28.805Z,5.73
2022-09-23T22:38:59.236Z,7.97
2022-09-23T22:41:26.133Z,12.53
2022-09-23T22:43:52.679Z,10.00
2022-09-23T22:46:19.431Z,12.57
2022-09-23T22:48:45.914Z,8.53
2022-09-23T22:51:12.393Z,6.23
2022-09-23T22:53:38.875Z,4.00
2022-09-23T22:56:06.857Z,4.80
2022-09-23T22:58:33.349Z,3.23
2022-09-23T23:00:59.837Z,3.97
2022-09-23T23:03:26.524Z,3.50
2022-09-23T23:05:53.135Z,2.23
2022-09-23T23:08:19.634Z,2.00
2022-09-23T23:10:46.122Z,2.83
2022-09-23T23:13:14.001Z,5.20
2022-09-23T23:15:40.523Z,2.33
2022-09-23T23:18:07.063Z,3.73
2022-09-23T23:20:33.689Z,2.20
2022-09-23T23:23:00.700Z,2.57
2022-09-23T23:25:27.226Z,2.60
2022-09-23T23:27:53.733Z,3.00
2022-09-23T23:30:21.587Z,3.20
2022-09-23T23:32:48.211Z,3.20
2022-09-23T23:35:14.928Z,3.10
2022-09-23T23:37:41.409Z,3.00
2022-09-23T23:40:08.987Z,3.20
2022-09-23T23:42:35.559Z,3.60
2022-09-23T23:45:02.098Z,3.63
2022-09-23T23:47:29.951Z,2.70
2022-09-23T23:49:56.438Z,2.20
2022-09-23T23:52:22.938Z,2.67
2022-09-23T23:54:49.417Z,3.17
2022-09-23T23:57:15.910Z,3.03
2022-09-23T23:59:42.389Z,2.50
